Time;durP1;ratioP1;P1;durP2;ratioP2;P2;SDS_P1;SDS_P2;PMS_P1;PMS_P2;Temp;Humidity;BMP_temperature;BMP_pressure;BME280_temperature;BME280_humidity;BME280_pressure;Samples;Min_cycle;Max_cycle;Signal;HPM_P1;HPM_P2
2022/11/15 00:01:30;;;;;;;40.95;28.23;;;;;;;6.09;100.00;100731.56;4971291;28;20034;-62
2022/11/15 00:03:55;;;;;;;39.13;26.65;;;;;;;6.12;100.00;100736.47;4971401;28;20089;-62
2022/11/15 00:06:20;;;;;;;41.63;27.70;;;;;;;6.16;100.00;100736.75;4970081;28;20035;-62
2022/11/15 00:08:46;;;;;;;39.20;26.42;;;;;;;6.17;100.00;100731.00;4971369;28;20442;-63
2022/11/15 00:11:12;;;;;;;43.88;30.70;;;;;;;6.21;100.00;100732.06;4971530;28;20034;-62
2022/11/15 00:13:37;;;;;;;42.25;28.98;;;;;;;6.26;100.00;100738.66;4971396;28;20503;-62
2022/11/15 00:16:03;;;;;;;41.90;27.35;;;;;;;6.28;100.00;100728.22;4971341;28;20162;-62
2022/11/15 00:18:29;;;;;;;39.92;27.27;;;;;;;6.31;100.00;100724.88;4971192;28;20426;-62
2022/11/15 00:20:55;;;;;;;41.33;26.65;;;;;;;6.33;100.00;100726.25;4971602;28;20040;-63
2022/11/15 00:23:21;;;;;;;41.78;27.45;;;;;;;6.36;100.00;100727.63;4969854;28;20027;-63
2022/11/15 00:25:46;;;;;;;41.20;28.50;;;;;;;6.39;100.00;100733.38;4971309;28;20107;-65
2022/11/15 00:28:12;;;;;;;39.50;27.88;;;;;;;6.40;100.00;100726.78;4972079;28;20027;-67
2022/11/15 00:30:37;;;;;;;41.22;28.17;;;;;;;6.44;100.00;100727.03;4974823;28;20030;-65
2022/11/15 00:33:04;;;;;;;38.35;27.60;;;;;;;6.47;100.00;100729.19;4974880;28;20035;-65
2022/11/15 00:35:32;;;;;;;40.33;27.55;;;;;;;6.50;100.00;100723.16;4974819;28;20027;-64
2022/11/15 00:37:57;;;;;;;40.33;29.60;;;;;;;6.53;100.00;100728.09;4974917;28;20038;-66
2022/11/15 00:40:22;;;;;;;42.35;28.90;;;;;;;6.58;100.00;100730.00;4973474;28;20035;-66
2022/11/15 00:42:47;;;;;;;38.67;27.30;;;;;;;6.62;100.00;100727.50;4974623;28;20782;-65
2022/11/15 00:45:13;;;;;;;39.20;26.85;;;;;;;6.64;100.00;100722.56;4974758;28;20027;-65
2022/11/15 00:47:38;;;;;;;38.88;28.15;;;;;;;6.65;100.00;100711.28;4974631;28;20434;-65
2022/11/15 00:50:04;;;;;;;40.05;27.20;;;;;;;6.69;100.00;100720.59;4974548;28;20073;-65
2022/11/15 00:52:29;;;;;;;38.78;27.17;;;;;;;6.72;100.00;100709.03;4974453;28;20035;-66
2022/11/15 00:54:54;;;;;;;39.97;27.58;;;;;;;6.75;100.00;100710.41;4974572;28;20027;-67
2022/11/15 00:57:20;;;;;;;37.83;26.67;;;;;;;6.79;100.00;100708.72;4970451;28;20489;-66
2022/11/15 00:59:45;;;;;;;41.25;27.95;;;;;;;6.83;100.00;100711.72;4974418;28;20023;-66
2022/11/15 01:02:10;;;;;;;38.97;27.17;;;;;;;6.84;100.00;100703.19;4973866;28;20185;-66
2022/11/15 01:04:35;;;;;;;37.00;27.17;;;;;;;6.90;100.00;100705.91;4974230;28;20043;-66
2022/11/15 01:07:01;;;;;;;40.22;29.88;;;;;;;6.94;100.00;100704.25;4974405;28;20474;-67
2022/11/15 01:09:26;;;;;;;37.28;27.50;;;;;;;6.97;100.00;100707.25;4974153;28;20039;-67
2022/11/15 01:11:52;;;;;;;36.45;26.23;;;;;;;7.00;100.00;100708.59;4974366;28;20422;-67
2022/11/15 01:14:17;;;;;;;35.97;26.10;;;;;;;7.05;100.00;100705.78;4974093;28;20038;-66
2022/11/15 01:16:42;;;;;;;38.97;27.23;;;;;;;7.09;100.00;100704.13;4974106;28;20082;-66
2022/11/15 01:19:07;;;;;;;37.60;26.73;;;;;;;7.13;100.00;100694.19;4974041;28;20026;-65
2022/11/15 01:21:33;;;;;;;36.67;26.73;;;;;;;7.16;100.00;100698.31;4974270;28;20038;-65
2022/11/15 01:23:58;;;;;;;36.72;25.80;;;;;;;7.22;100.00;100699.09;4974024;28;20657;-65
2022/11/15 01:26:24;;;;;;;36.72;26.08;;;;;;;7.25;100.00;100688.31;4973967;28;20031;-66
2022/11/15 01:28:50;;;;;;;37.75;27.10;;;;;;;7.31;100.00;100683.59;4973975;28;20125;-65
2022/11/15 01:31:18;;;;;;;37.53;26.95;;;;;;;7.35;100.00;100690.16;4973872;28;20440;-65
2022/11/15 01:33:44;;;;;;;39.45;27.85;;;;;;;7.41;100.00;100682.69;4973886;28;20114;-65
2022/11/15 01:36:18;;;;;;;37.90;27.90;;;;;;;7.43;100.00;100680.47;4974018;28;20035;-65
2022/11/15 01:38:44;;;;;;;38.22;26.55;;;;;;;7.45;100.00;100672.75;4974004;28;20046;-65
2022/11/15 01:41:22;;;;;;;40.85;27.73;;;;;;;7.49;100.00;100679.31;4971529;28;20030;-65
2022/11/15 01:43:56;;;;;;;37.47;26.42;;;;;;;7.49;100.00;100674.63;4973772;28;20064;-64
2022/11/15 01:46:21;;;;;;;37.20;26.38;;;;;;;7.51;100.00;100668.03;4973739;28;20064;-64
2022/11/15 01:48:49;;;;;;;37.83;26.85;;;;;;;7.53;100.00;100676.78;4973662;28;20037;-64
2022/11/15 01:51:17;;;;;;;39.90;27.48;;;;;;;7.54;100.00;100672.94;4973612;28;20118;-63
2022/11/15 01:53:47;;;;;;;37.05;27.67;;;;;;;7.51;100.00;100668.84;4973611;28;20023;-63
2022/11/15 01:56:17;;;;;;;37.05;28.05;;;;;;;7.52;100.00;100666.88;4973727;28;20066;-63
2022/11/15 01:58:45;;;;;;;36.63;26.83;;;;;;;7.59;100.00;100679.22;4973589;28;20089;-63
2022/11/15 02:01:12;;;;;;;35.22;27.52;;;;;;;7.63;100.00;100673.94;4969640;28;20035;-64
2022/11/15 02:03:48;;;;;;;38.60;27.73;;;;;;;7.63;100.00;100666.53;4973313;28;20027;-65
2022/11/15 02:06:14;;;;;;;36.88;27.83;;;;;;;7.67;100.00;100672.25;4973251;28;20041;-65
2022/11/15 02:08:40;;;;;;;37.47;26.92;;;;;;;7.70;100.00;100674.41;4973181;28;20058;-64
2022/11/15 02:11:09;;;;;;;39.33;27.58;;;;;;;7.72;100.00;100669.44;4973169;28;20069;-65
2022/11/15 02:13:35;;;;;;;36.97;26.67;;;;;;;7.74;100.00;100674.69;4973354;28;20027;-64
2022/11/15 02:16:04;;;;;;;35.83;26.80;;;;;;;7.76;100.00;100655.91;4973251;28;20364;-64
2022/11/15 02:18:46;;;;;;;36.72;27.67;;;;;;;7.76;100.00;100648.47;4972943;28;20411;-65
2022/11/15 02:21:26;;;;;;;39.00;27.42;;;;;;;7.74;100.00;100636.94;4973283;28;20046;-65
2022/11/15 02:24:31;;;;;;;38.13;27.40;;;;;;;7.85;100.00;100642.34;4972939;28;20375;-66
2022/11/15 02:26:56;;;;;;;;;;;;;;;7.87;100.00;100645.63;4973297;28;20097;-66
2022/11/15 02:30:00;;;;;;;35.20;27.17;;;;;;;7.90;100.00;100642.25;4972818;28;20345;-66
2022/11/15 02:32:54;;;;;;;39.20;27.90;;;;;;;7.94;100.00;100640.56;4973031;28;20062;-65
2022/11/15 02:35:59;;;;;;;38.72;29.13;;;;;;;7.97;100.00;100640.00;4968956;28;20061;-65
2022/11/15 02:38:43;;;;;;;;;;;;;;;7.98;100.00;100641.63;4973419;28;20030;-65
2022/11/15 02:41:16;;;;;;;36.70;26.60;;;;;;;8.01;100.00;100640.22;4972842;28;20397;-65
2022/11/15 02:43:56;;;;;;;36.47;27.20;;;;;;;8.06;100.00;100645.66;4972836;28;20050;-65
2022/11/15 02:49:27;;;;;;;38.42;28.50;;;;;;;8.14;100.00;100633.97;4973207;28;20054;-64
2022/11/15 02:51:54;;;;;;;36.65;27.00;;;;;;;8.17;100.00;100633.41;4987284;28;20034;-65
2022/11/15 02:54:29;;;;;;;38.03;27.80;;;;;;;8.18;100.00;100626.78;4971242;28;20057;-63
2022/11/15 02:57:01;;;;;;;35.92;27.02;;;;;;;8.23;100.00;100623.94;4969646;28;20030;-65
2022/11/15 02:59:57;;;;;;;38.80;28.95;;;;;;;8.26;100.00;100623.38;4970518;28;20050;-65
2022/11/15 03:02:41;;;;;;;39.13;28.73;;;;;;;8.28;100.00;100623.91;4972235;28;20031;-65
2022/11/15 03:05:30;;;;;;;39.30;28.48;;;;;;;8.30;100.00;100620.84;4972232;28;20039;-66
2022/11/15 03:08:08;;;;;;;40.25;28.90;;;;;;;8.34;100.00;100621.91;4972230;28;20428;-65
2022/11/15 03:10:51;;;;;;;39.60;28.55;;;;;;;8.40;100.00;100625.41;4972136;28;20034;-64
2022/11/15 03:13:27;;;;;;;39.17;28.60;;;;;;;8.42;100.00;100617.63;4972151;28;20093;-67
2022/11/15 03:16:04;;;;;;;38.10;27.95;;;;;;;8.40;100.00;100614.38;4972094;28;20274;-66
2022/11/15 03:18:35;;;;;;;38.53;28.25;;;;;;;8.39;100.00;100604.47;4971586;28;20872;-65
2022/11/15 03:21:05;;;;;;;40.30;28.33;;;;;;;8.46;100.00;100620.59;4971735;28;20023;-66
2022/11/15 03:23:32;;;;;;;41.13;28.95;;;;;;;8.47;100.00;100617.59;4971676;28;20022;-66
2022/11/15 03:26:00;;;;;;;35.45;27.90;;;;;;;8.50;100.00;100619.75;4971936;28;20031;-67
2022/11/15 03:28:34;;;;;;;38.05;27.80;;;;;;;8.50;100.00;100619.75;4972119;28;20487;-67
2022/11/15 03:31:46;;;;;;;35.70;26.77;;;;;;;8.53;100.00;100615.59;4972011;28;20043;-68
2022/11/15 03:33:50;;;;;;;37.47;27.48;;;;;;;8.55;100.00;100616.09;4971748;28;20070;-69
2022/11/15 03:36:16;;;;;;;39.63;28.50;;;;;;;8.56;100.00;100618.56;4971861;28;20039;-68
2022/11/15 03:38:44;;;;;;;43.78;32.63;;;;;;;8.61;100.00;100625.13;4972094;28;20035;-67
2022/11/15 03:41:24;;;;;;;38.72;29.88;;;;;;;8.56;100.00;100623.25;4971826;28;20075;-67
2022/11/15 03:43:57;;;;;;;41.58;28.05;;;;;;;8.60;100.00;100627.06;4971738;28;20045;-67
2022/11/15 03:46:32;;;;;;;36.97;27.63;;;;;;;8.63;100.00;100629.25;4971512;28;20023;-68
2022/11/15 03:49:17;;;;;;;38.03;28.33;;;;;;;8.58;100.00;100612.75;4971670;28;20434;-69
2022/11/15 03:51:42;;;;;;;;;;;;;;;8.65;100.00;100618.69;4971943;28;20085;-67
2022/11/15 03:54:07;;;;;;;37.90;27.50;;;;;;;8.70;100.00;100626.91;4971697;28;19914;-68
2022/11/15 03:56:32;;;;;;;39.00;27.35;;;;;;;8.71;100.00;100622.22;4971454;28;20282;-68
2022/11/15 03:58:58;;;;;;;37.65;28.13;;;;;;;8.76;100.00;100618.56;4971442;28;20019;-67
2022/11/15 04:01:23;;;;;;;40.20;28.58;;;;;;;8.76;100.00;100616.63;4967530;28;20042;-69
2022/11/15 04:03:48;;;;;;;37.03;27.67;;;;;;;8.74;100.00;100611.41;4973450;28;20027;-67
2022/11/15 04:06:14;;;;;;;38.22;28.65;;;;;;;8.77;100.00;100612.75;4975455;28;20066;-66
2022/11/15 04:08:39;;;;;;;41.03;27.90;;;;;;;8.78;100.00;100613.56;4975336;28;20491;-66
2022/11/15 04:11:04;;;;;;;40.22;28.83;;;;;;;8.77;100.00;100617.44;4975382;28;20091;-65
2022/11/15 04:13:30;;;;;;;40.33;29.15;;;;;;;8.83;100.00;100616.25;4975311;28;20027;-65
2022/11/15 04:15:55;;;;;;;41.80;30.58;;;;;;;8.87;100.00;100617.28;4975490;28;20034;-66
2022/11/15 04:18:20;;;;;;;45.17;30.77;;;;;;;8.92;100.00;100616.38;4975185;28;20057;-66
2022/11/15 04:26:30;;;;;;;45.38;31.48;;;;;;;8.98;100.00;100615.16;4952692;29;19970;-67
2022/11/15 04:31:39;;;;;;;44.58;30.23;;;;;;;8.95;100.00;100611.06;4975221;28;20601;-69
2022/11/15 04:34:05;;;;;;;45.53;30.80;;;;;;;8.98;100.00;100609.66;4974983;28;20050;-67
2022/11/15 04:39:14;;;;;;;42.75;30.02;;;;;;;9.01;100.00;100612.66;4974942;28;20494;-67
2022/11/15 04:41:39;;;;;;;43.63;29.25;;;;;;;8.98;100.00;100617.94;4974767;28;20030;-66
2022/11/15 04:44:04;;;;;;;47.08;30.00;;;;;;;8.98;100.00;100609.66;4974688;28;20030;-68
2022/11/15 04:46:30;;;;;;;43.50;30.40;;;;;;;8.92;100.00;100611.69;4974700;28;20035;-67
2022/11/15 04:48:55;;;;;;;42.50;29.88;;;;;;;8.96;100.00;100617.44;4974521;28;20026;-68
2022/11/15 04:51:21;;;;;;;42.50;30.25;;;;;;;8.94;100.00;100617.72;4974764;28;20034;-68
2022/11/15 04:53:46;;;;;;;48.83;34.58;;;;;;;8.96;100.00;100626.50;4974326;28;20085;-67
2022/11/15 04:56:11;;;;;;;48.83;36.75;;;;;;;8.97;100.00;100630.91;4970912;28;20062;-66
2022/11/15 04:58:37;;;;;;;47.20;30.85;;;;;;;9.01;100.00;100622.84;4974592;28;20087;-64
2022/11/15 05:01:10;;;;;;;44.45;30.25;;;;;;;8.96;100.00;100614.66;4974456;28;20033;-68
2022/11/15 05:06:19;;;;;;;44.65;29.83;;;;;;;8.99;100.00;100614.03;4974550;28;20042;-67
2022/11/15 05:08:44;;;;;;;44.08;29.42;;;;;;;9.01;100.00;100614.56;4974566;28;20042;-66
2022/11/15 05:11:10;;;;;;;44.42;31.00;;;;;;;8.99;100.00;100616.81;4973128;28;20031;-67
2022/11/15 05:13:35;;;;;;;42.03;30.00;;;;;;;8.99;100.00;100609.38;4972338;28;20059;-65
2022/11/15 05:16:00;;;;;;;42.85;29.83;;;;;;;9.00;100.00;100604.66;4971228;28;20027;-65
2022/11/15 05:18:26;;;;;;;42.33;29.20;;;;;;;9.02;100.00;100608.75;4972287;28;20055;-65
2022/11/15 05:20:51;;;;;;;44.22;31.00;;;;;;;9.03;100.00;100610.38;4973101;28;20069;-65
2022/11/15 05:23:16;;;;;;;43.13;29.30;;;;;;;9.06;100.00;100611.75;4974107;28;20027;-65
2022/11/15 05:25:41;;;;;;;43.10;30.25;;;;;;;9.06;100.00;100606.22;4974035;28;20619;-65
2022/11/15 05:28:07;;;;;;;42.55;30.63;;;;;;;9.05;100.00;100601.81;4974053;28;20420;-69
2022/11/15 05:30:32;;;;;;;40.80;30.70;;;;;;;9.08;100.00;100600.41;4973810;28;20038;-69
2022/11/15 05:32:57;;;;;;;43.13;29.75;;;;;;;9.09;100.00;100604.78;4973762;28;20062;-69
2022/11/15 05:35:34;;;;;;;41.78;30.25;;;;;;;9.03;100.00;100595.78;4973820;28;20058;-67
2022/11/15 05:37:59;;;;;;;45.00;32.47;;;;;;;9.09;100.00;100599.28;4972324;28;20042;-67
2022/11/15 05:40:28;;;;;;;45.65;31.27;;;;;;;9.10;100.00;100601.72;4973427;28;20031;-68
2022/11/15 05:42:53;;;;;;;47.63;31.67;;;;;;;9.14;100.00;100600.00;4973654;28;20214;-65
2022/11/15 05:45:19;;;;;;;45.65;30.60;;;;;;;9.16;100.00;100596.94;4973618;28;20042;-63
2022/11/15 05:47:46;;;;;;;42.70;30.63;;;;;;;9.18;100.00;100584.47;4973507;28;20073;-64
2022/11/15 05:50:16;;;;;;;41.60;30.42;;;;;;;9.15;100.00;100587.84;4973337;28;20046;-65
2022/11/15 05:52:42;;;;;;;42.17;30.02;;;;;;;9.15;100.00;100598.06;4973491;28;20027;-64
2022/11/15 05:55:08;;;;;;;41.47;28.70;;;;;;;9.16;100.00;100606.03;4973421;28;20102;-65
2022/11/15 05:57:34;;;;;;;38.40;28.10;;;;;;;9.17;100.00;100599.38;4967128;28;20097;-65
2022/11/15 05:59:59;;;;;;;40.85;29.00;;;;;;;9.17;100.00;100604.91;4971869;28;20120;-65
2022/11/15 06:02:25;;;;;;;42.55;28.15;;;;;;;9.17;100.00;100596.63;4971851;28;20042;-65
2022/11/15 06:04:50;;;;;;;43.33;28.55;;;;;;;9.17;100.00;100599.38;4971820;28;20039;-66
2022/11/15 06:07:15;;;;;;;39.22;28.25;;;;;;;9.17;100.00;100604.91;4971624;28;20444;-65
2022/11/15 06:09:40;;;;;;;40.35;28.20;;;;;;;9.16;100.00;100608.78;4971320;28;20026;-64
2022/11/15 06:12:06;;;;;;;37.35;27.45;;;;;;;9.17;100.00;100609.63;4971153;28;20547;-64
2022/11/15 06:14:31;;;;;;;38.70;27.40;;;;;;;9.20;100.00;100609.84;4971222;28;20042;-65
2022/11/15 06:16:56;;;;;;;37.92;27.98;;;;;;;9.19;100.00;100610.94;4971163;28;20023;-65
2022/11/15 06:19:22;;;;;;;40.30;27.83;;;;;;;9.21;100.00;100618.91;4971094;28;20026;-65
2022/11/15 06:21:47;;;;;;;41.03;27.30;;;;;;;9.21;100.00;100611.47;4970966;28;20027;-65
2022/11/15 06:24:12;;;;;;;39.78;28.55;;;;;;;9.20;100.00;100611.78;4970749;28;20033;-65
2022/11/15 06:26:38;;;;;;;36.90;26.20;;;;;;;9.23;100.00;100624.97;4970301;28;20027;-65
2022/11/15 06:29:04;;;;;;;38.22;27.30;;;;;;;9.24;100.00;100623.84;4970779;28;20571;-65
2022/11/15 06:31:29;;;;;;;41.15;28.52;;;;;;;9.24;100.00;100621.09;4970597;28;20109;-64
2022/11/15 06:33:55;;;;;;;37.83;27.40;;;;;;;9.26;100.00;100629.09;4971051;28;20105;-64
2022/11/15 06:36:20;;;;;;;37.28;26.92;;;;;;;9.27;100.00;100627.94;4971160;28;20031;-64
2022/11/15 06:38:46;;;;;;;39.58;27.02;;;;;;;9.27;100.00;100634.28;4971411;28;20395;-64
2022/11/15 06:41:13;;;;;;;39.30;26.35;;;;;;;9.27;100.00;100630.69;4971357;28;20110;-63
2022/11/15 06:43:39;;;;;;;39.13;27.75;;;;;;;9.28;100.00;100627.66;4971510;28;20027;-64
2022/11/15 06:46:06;;;;;;;35.90;27.13;;;;;;;9.28;100.00;100635.94;4971618;28;20475;-64
2022/11/15 06:48:32;;;;;;;39.90;28.75;;;;;;;9.29;100.00;100631.22;4971492;28;20050;-65
2022/11/15 06:50:59;;;;;;;40.53;27.70;;;;;;;9.29;100.00;100640.34;4970252;28;20065;-63
2022/11/15 06:53:26;;;;;;;35.83;26.65;;;;;;;9.28;100.00;100643.38;4967864;28;20090;-64
2022/11/15 06:55:51;;;;;;;37.92;27.67;;;;;;;9.27;100.00;100637.06;4971650;28;20382;-64
2022/11/15 06:58:17;;;;;;;37.90;27.60;;;;;;;9.27;100.00;100647.25;4970362;28;20506;-64
2022/11/15 07:00:42;;;;;;;39.67;27.75;;;;;;;9.27;100.00;100650.84;4972894;28;20102;-64
2022/11/15 07:03:08;;;;;;;37.97;27.60;;;;;;;9.26;100.00;100651.16;4972159;28;20038;-64
2022/11/15 07:05:35;;;;;;;37.80;27.33;;;;;;;9.22;100.00;100650.91;4971642;28;20050;-64
2022/11/15 07:08:01;;;;;;;39.30;26.88;;;;;;;9.24;100.00;100648.69;4971857;28;20125;-63
2022/11/15 07:10:27;;;;;;;39.53;27.80;;;;;;;9.21;100.00;100644.59;4972062;28;20034;-64
2022/11/15 07:12:53;;;;;;;36.33;26.25;;;;;;;9.21;100.00;100646.53;4971944;28;20027;-64
2022/11/15 07:15:21;;;;;;;39.30;29.73;;;;;;;9.16;100.00;100641.09;4972180;28;20069;-64
2022/11/15 07:17:47;;;;;;;36.65;27.00;;;;;;;9.19;100.00;100651.53;4971847;28;20127;-64
2022/11/15 07:20:13;;;;;;;37.83;26.45;;;;;;;9.16;100.00;100647.44;4970281;28;20123;-64
2022/11/15 07:22:42;;;;;;;34.65;26.05;;;;;;;9.16;100.00;100657.66;4969235;28;20111;-63
2022/11/15 07:25:08;;;;;;;35.83;24.63;;;;;;;9.14;100.00;100660.72;4969074;28;20088;-64
2022/11/15 07:27:35;;;;;;;34.42;24.67;;;;;;;9.14;100.00;100663.50;4969214;28;20439;-64
2022/11/15 07:30:00;;;;;;;37.47;25.42;;;;;;;9.15;100.00;100659.63;4969818;28;20058;-64
2022/11/15 07:32:26;;;;;;;36.72;24.67;;;;;;;9.16;100.00;100661.22;4969795;28;20576;-64
2022/11/15 07:34:51;;;;;;;35.38;25.02;;;;;;;9.14;100.00;100655.22;4969017;28;20054;-65
2022/11/15 07:37:17;;;;;;;35.17;25.80;;;;;;;9.17;100.00;100660.09;4970415;28;20118;-65
2022/11/15 07:39:43;;;;;;;36.75;25.95;;;;;;;9.19;100.00;100662.59;4971837;28;20030;-64
2022/11/15 07:44:52;;;;;;;34.13;25.83;;;;;;;9.20;100.00;100654.00;4971932;28;20490;-66
2022/11/15 07:47:17;;;;;;;33.47;23.67;;;;;;;9.23;100.00;100649.81;4972047;28;20035;-67
2022/11/15 07:49:43;;;;;;;34.92;25.52;;;;;;;9.24;100.00;100659.72;4971207;28;20084;-67
2022/11/15 07:52:08;;;;;;;33.80;23.70;;;;;;;9.25;100.00;100650.31;4970535;28;20513;-67
2022/11/15 07:54:33;;;;;;;34.60;25.33;;;;;;;9.28;100.00;100651.66;4970633;28;20038;-67
2022/11/15 07:56:59;;;;;;;33.30;24.25;;;;;;;9.26;100.00;100646.44;4970491;28;20030;-67
2022/11/15 07:59:24;;;;;;;34.13;24.95;;;;;;;9.29;100.00;100645.84;4970561;28;20027;-67
2022/11/15 08:01:49;;;;;;;34.28;24.90;;;;;;;9.33;100.00;100648.81;4970624;28;20487;-67
2022/11/15 08:04:15;;;;;;;32.40;24.17;;;;;;;9.35;100.00;100649.34;4970539;28;20604;-67
2022/11/15 08:06:40;;;;;;;39.90;24.50;;;;;;;9.38;100.00;100651.47;4970767;28;20034;-68
2022/11/15 08:09:05;;;;;;;38.70;28.98;;;;;;;9.41;100.00;100647.28;4970015;28;20097;-67
2022/11/15 08:11:32;;;;;;;36.47;25.42;;;;;;;9.42;100.00;100657.22;4970806;28;20035;-67
2022/11/15 08:13:58;;;;;;;33.38;23.67;;;;;;;9.43;100.00;100659.69;4969645;28;20027;-66
2022/11/15 08:16:24;;;;;;;33.95;23.60;;;;;;;9.43;100.00;100656.09;4969777;28;20031;-67
2022/11/15 08:18:49;;;;;;;33.00;23.38;;;;;;;9.45;100.00;100670.44;4970795;28;20149;-67
2022/11/15 08:21:18;;;;;;;32.22;22.48;;;;;;;9.41;100.00;100664.69;4970942;28;20035;-67
2022/11/15 08:23:44;;;;;;;33.38;22.88;;;;;;;9.43;100.00;100665.22;4970808;28;20138;-67
2022/11/15 08:26:09;;;;;;;33.40;22.42;;;;;;;9.44;100.00;100661.34;4970822;28;20519;-68
2022/11/15 08:28:35;;;;;;;33.17;21.77;;;;;;;9.47;100.00;100669.00;4970937;28;20481;-67
2022/11/15 08:31:01;;;;;;;29.17;21.02;;;;;;;9.50;100.00;100662.03;4969512;28;20081;-67
2022/11/15 08:33:27;;;;;;;29.58;21.20;;;;;;;9.52;100.00;100665.31;4970923;28;20454;-67
2022/11/15 08:35:57;;;;;;;30.10;20.80;;;;;;;9.47;100.00;100655.19;4971299;28;20022;-66
2022/11/15 08:38:22;;;;;;;29.23;19.60;;;;;;;9.51;100.00;100663.69;4971309;28;20113;-66
2022/11/15 08:40:48;;;;;;;27.50;19.50;;;;;;;9.49;100.00;100664.00;4970813;28;20451;-67
2022/11/15 08:43:13;;;;;;;28.42;18.92;;;;;;;9.48;100.00;100659.59;4970798;28;20038;-67
2022/11/15 08:45:38;;;;;;;26.63;18.67;;;;;;;9.49;100.00;100657.66;4970863;28;20054;-66
2022/11/15 08:48:04;;;;;;;27.58;19.30;;;;;;;9.49;100.00;100655.72;4970683;28;20034;-65
2022/11/15 08:50:30;;;;;;;27.73;18.10;;;;;;;9.57;100.00;100653.38;4973191;28;20051;-67
2022/11/15 08:52:55;;;;;;;27.50;18.40;;;;;;;9.59;100.00;100634.56;4974274;28;20037;-66
2022/11/15 08:55:20;;;;;;;26.65;18.08;;;;;;;9.59;100.00;100635.34;4974280;28;20537;-66
2022/11/15 08:57:46;;;;;;;27.10;17.48;;;;;;;9.59;100.00;100629.84;4974229;28;20034;-67
2022/11/15 09:00:13;;;;;;;27.98;17.75;;;;;;;9.59;100.00;100627.06;4973949;28;20034;-66
2022/11/15 09:02:39;;;;;;;28.85;19.98;;;;;;;9.61;100.00;100633.13;4973690;28;20066;-67
2022/11/15 09:05:05;;;;;;;25.77;16.38;;;;;;;9.57;100.00;100620.22;4972714;28;20041;-65
2022/11/15 09:07:31;;;;;;;24.35;16.52;;;;;;;9.59;100.00;100631.78;4972981;28;20117;-66
2022/11/15 09:09:57;;;;;;;23.05;15.75;;;;;;;9.57;100.00;100628.50;4973983;28;20033;-67
2022/11/15 09:12:22;;;;;;;22.77;15.23;;;;;;;9.58;100.00;100619.09;4974212;28;20022;-67
2022/11/15 09:14:47;;;;;;;22.30;15.43;;;;;;;9.58;100.00;100622.69;4973805;28;20030;-66
2022/11/15 09:17:13;;;;;;;23.10;15.57;;;;;;;9.57;100.00;100617.47;4973799;28;20167;-67
2022/11/15 09:19:38;;;;;;;23.98;15.32;;;;;;;9.58;100.00;100611.66;4974049;28;20031;-68
2022/11/15 09:22:06;;;;;;;23.67;15.13;;;;;;;9.60;100.00;100606.63;4974042;28;20034;-67
2022/11/15 09:24:31;;;;;;;22.60;14.85;;;;;;;9.67;100.00;100614.50;4974113;28;20082;-67
2022/11/15 09:26:57;;;;;;;23.48;15.77;;;;;;;9.81;100.00;100611.75;4973933;28;20050;-67
2022/11/15 09:29:22;;;;;;;23.20;15.90;;;;;;;9.88;100.00;100605.81;4973752;28;20033;-67
2022/11/15 09:31:47;;;;;;;22.33;15.40;;;;;;;9.94;100.00;100599.06;4973575;28;20026;-67
2022/11/15 09:34:13;;;;;;;22.60;15.38;;;;;;;9.94;100.00;100583.31;4972189;28;20030;-66
2022/11/15 09:36:38;;;;;;;22.33;15.13;;;;;;;9.91;100.00;100589.44;4973678;28;20033;-68
2022/11/15 09:39:03;;;;;;;24.00;16.10;;;;;;;9.90;100.00;100592.53;4973452;28;20069;-67
2022/11/15 09:41:47;;;;;;;24.90;15.48;;;;;;;9.95;100.00;100600.69;4973457;28;20034;-67
2022/11/15 09:44:28;;;;;;;21.15;14.65;;;;;;;9.97;100.00;100602.03;4973168;28;20045;-67
2022/11/15 09:47:18;;;;;;;24.40;14.65;;;;;;;10.04;100.00;100589.75;4972892;28;20819;-67
2022/11/15 09:49:44;;;;;;;20.27;14.15;;;;;;;10.14;100.00;100590.34;4973215;28;20034;-67
2022/11/15 09:52:11;;;;;;;21.67;14.13;;;;;;;10.22;100.00;100594.34;4973022;28;20034;-66
2022/11/15 09:54:38;;;;;;;22.52;14.20;;;;;;;10.26;100.00;100586.22;4973006;28;20047;-66
2022/11/15 09:57:13;;;;;;;21.25;13.20;;;;;;;10.30;100.00;100574.25;4972965;28;20496;-67
2022/11/15 09:59:47;;;;;;;20.55;12.98;;;;;;;10.35;100.00;100583.53;4972938;28;20031;-66
2022/11/15 10:02:18;;;;;;;19.88;12.10;;;;;;;10.33;100.00;100592.16;4972224;28;20555;-66
2022/11/15 10:04:43;;;;;;;20.77;12.30;;;;;;;10.33;100.00;100585.81;4972831;28;20031;-66
2022/11/15 10:07:15;;;;;;;19.52;12.45;;;;;;;10.35;100.00;100578.00;4971651;28;20443;-67
2022/11/15 10:09:52;;;;;;;18.55;11.73;;;;;;;10.29;100.00;100569.03;4972950;28;20023;-66
2022/11/15 10:12:18;;;;;;;19.00;11.82;;;;;;;10.32;100.00;100565.63;4973097;28;20055;-66
2022/11/15 10:14:46;;;;;;;19.02;11.65;;;;;;;10.31;100.00;100561.22;4972898;28;20065;-66
2022/11/15 10:17:26;;;;;;;18.33;11.13;;;;;;;10.28;100.00;100559.09;4971133;28;20113;-66
2022/11/15 10:20:06;;;;;;;18.10;11.23;;;;;;;10.28;100.00;100565.44;4972604;28;20039;-65
2022/11/15 10:22:40;;;;;;;17.50;11.05;;;;;;;10.27;100.00;100568.53;4972704;28;20471;-66
2022/11/15 10:25:08;;;;;;;16.45;10.60;;;;;;;10.33;100.00;100564.50;4972429;28;20043;-66
2022/11/15 10:27:34;;;;;;;15.65;10.18;;;;;;;10.41;100.00;100561.03;4971067;28;20085;-66
2022/11/15 10:29:59;;;;;;;16.63;9.95;;;;;;;10.44;100.00;100565.09;4970868;28;20099;-66
2022/11/15 10:32:25;;;;;;;14.00;9.50;;;;;;;10.46;100.00;100568.38;4972518;28;20467;-65
2022/11/15 10:34:50;;;;;;;16.92;10.00;;;;;;;10.48;100.00;100562.56;4972460;28;20066;-65
2022/11/15 10:37:29;;;;;;;14.63;9.60;;;;;;;10.45;100.00;100550.97;4972648;28;20038;-67
2022/11/15 10:40:16;;;;;;;15.70;9.70;;;;;;;10.41;100.00;100540.84;4972515;28;20034;-65
2022/11/15 10:42:42;;;;;;;15.30;9.43;;;;;;;10.42;97.62;100540.53;4972318;28;20178;-65
2022/11/15 10:45:31;;;;;;;15.90;9.65;;;;;;;10.34;98.52;100530.19;4972272;28;20606;-68
2022/11/15 10:48:11;;;;;;;13.25;9.18;;;;;;;10.35;97.90;100531.84;4972214;28;20048;-66
2022/11/15 10:50:37;;;;;;;14.60;9.07;;;;;;;10.33;98.53;100541.56;4972043;28;20091;-66
2022/11/15 10:53:03;;;;;;;14.30;9.52;;;;;;;10.38;99.42;100531.25;4972001;28;20081;-65
2022/11/15 10:55:31;;;;;;;15.00;9.50;;;;;;;10.41;98.25;100529.78;4971719;28;20030;-65
2022/11/15 10:58:05;;;;;;;16.30;9.30;;;;;;;10.47;97.23;100517.47;4970482;28;20047;-66
2022/11/15 11:00:34;;;;;;;14.52;9.38;;;;;;;10.52;97.72;100525.66;4971476;28;20023;-66
2022/11/15 11:03:01;;;;;;;14.43;9.52;;;;;;;10.58;98.09;100518.06;4971502;28;20034;-66
2022/11/15 11:05:33;;;;;;;16.25;9.68;;;;;;;10.62;97.32;100516.28;4971523;28;20039;-65
2022/11/15 11:08:21;;;;;;;19.58;9.55;;;;;;;10.70;95.52;100514.72;4970373;28;20074;-66
2022/11/15 11:10:54;;;;;;;14.80;8.95;;;;;;;10.68;93.75;100503.16;4971284;28;20031;-65
2022/11/15 11:13:33;;;;;;;16.48;9.43;;;;;;;10.70;93.97;100504.47;4971133;28;20475;-65
2022/11/15 11:16:13;;;;;;;14.63;8.75;;;;;;;10.72;93.65;100504.16;4971518;28;20665;-66
2022/11/15 11:18:44;;;;;;;14.82;8.88;;;;;;;10.75;92.79;100506.28;4971329;28;20067;-65
2022/11/15 11:21:14;;;;;;;14.25;8.60;;;;;;;10.76;92.29;100503.22;4971121;28;20030;-65
2022/11/15 11:23:54;;;;;;;15.25;8.50;;;;;;;10.79;89.61;100504.53;4971096;28;20113;-65
2022/11/15 11:26:53;;;;;;;14.07;8.40;;;;;;;10.82;90.58;100495.56;4971117;28;20086;-65
2022/11/15 11:29:30;;;;;;;13.77;9.02;;;;;;;10.80;89.16;100488.72;4970791;28;20027;-65
2022/11/15 11:32:26;;;;;;;16.70;9.43;;;;;;;10.75;89.38;100481.38;4971111;28;20026;-65
2022/11/15 11:35:09;;;;;;;16.73;9.50;;;;;;;10.72;90.91;100482.03;4970996;28;20038;-65
2022/11/15 11:37:49;;;;;;;16.95;9.15;;;;;;;10.70;88.84;100474.03;4969910;28;20115;-65